• Join FlightAware (Why Join?)
  • Login
  • US Flag 
12:12PM EDT


 

Airport Tracker/Info


-or-


 

Live Flight TrackerFlight Track Log ✈ FLG3735 ✈ 03-Jun-2013 ✈ KDTW - KALB

Flight Track Log - Related Links

Times and Time Zones

All times are in EDT time to prevent confusion due to time zone crossing. See the FLG3735 flight status page for this flight to view local times or setup timezone preferences in your user account.

Time Position Orientation Groundspeed Altitude Reporting Facility
EDT Latitude Longitude Course Direction KTS MPH feet Rate Location/Type
10:02PM 42.2292 -83.3342 71° East 151 174 1,200  Level Cleveland Center
10:03PM 42.2675 -83.3022 32° Northeast 205 236 2,700 1,980 Climbing Cleveland Center
10:04PM 42.3211 -83.2456 38° Northeast 258 297 5,300 2,640 Climbing Cleveland Center
10:05PM 42.2947 -82.8599 75° East  Level FlightAware Approximate
10:05PM 42.3439 -83.1592 70° East 284 327 8,300  Level Cleveland Center
10:06PM 42.3222 -82.6953 82° East  Level FlightAware Approximate
10:06PM 42.3467 -83.0272 88° East 310 357 10,600  Level Cleveland Center
10:07PM 42.3466 -82.5301 71° East  Level FlightAware Approximate
10:07PM 42.3517 -82.8928 87° East 335 386 12,400  Level Cleveland Center
10:08PM 42.3564 -82.7553 87° East 356 410 14,300 1,740 Climbing Cleveland Center
10:09PM 42.3611 -82.6092 87° East 369 425 15,900 1,560 Climbing Cleveland Center
10:10PM 42.3656 -82.4575 88° East 391 450 17,500 1,440 Climbing Cleveland Center
10:11PM 42.3600 -82.2972 93° East 409 471 18,800 1,200 Climbing Cleveland Center
10:12PM 42.3561 -82.1172 92° East 423 487 19,900 900 Climbing Cleveland Center
10:13PM 42.3458 -81.9456 95° East 447 514 20,600 600 Climbing Cleveland Center
10:14PM 42.3375 -81.7600 93° East 473 544 21,100 480 Climbing Cleveland Center
10:15PM 42.3308 -81.5775 93° East 484 557 21,600 480 Climbing Cleveland Center
10:16PM 42.3197 -81.3833 94° East 506 582 22,100 420 Climbing Cleveland Center
10:17PM 42.3125 -81.2094 93° East 516 594 22,500 480 Climbing Cleveland Center
10:18PM 42.3031 -81.0156 94° East 516 594 23,100 540 Climbing Cleveland Center
10:19PM 42.2953 -80.8133 93° East 527 606 23,600 480 Climbing Cleveland Center
10:20PM 42.3164 -80.6169 82° East 526 605 24,100 480 Climbing Cleveland Center
10:21PM 42.3350 -80.4231 83° East 526 605 24,600 420 Climbing Cleveland Center
10:22PM 42.3553 -80.2067 83° East 526 605 25,000 180 Climbing Cleveland Center
10:23PM 42.3711 -80.0042 84° East 526 605 25,000 -660 Level Cleveland Center
10:24PM 42.3889 -79.8242 82° East 531 611 23,700 -1,020 Descending Cleveland Center
10:25PM 42.4061 -79.6214 83° East 537 618 23,000 -360 Descending Cleveland Center
10:26PM 42.4231 -79.4244 83° East 537 618 23,000  Level Cleveland Center
10:27PM 42.4397 -79.2242 83° East 537 618 23,000  Level Cleveland Center
10:28PM 42.4558 -79.0100 84° East 537 618 23,000  Level Cleveland Center
10:29PM 42.4717 -78.8211 83° East 523 602 23,000  Level Cleveland Center
10:30PM 42.4858 -78.6517 83° East 495 570 23,000 -780 Level Cleveland Center
10:31PM 42.4975 -78.4853 85° East 460 529 21,500 -1,020 Descending Cleveland Center
10:32PM 42.5108 -78.3158 84° East 447 514 21,000 -300 Descending Cleveland Center
10:33PM 42.5219 -78.1378 85° East 453 521 21,000  Level Cleveland Center
10:34PM 42.5367 -77.9542 84° East 476 548 21,000  Level Cleveland Center
10:35PM 42.5472 -77.7903 85° East 486 559 21,000  Level Cleveland Center
10:36PM 42.5592 -77.5978 85° East 493 567 21,000  Level Cleveland Center
10:38PM 42.5819 -77.2544 85° East 493 567 21,000  Level Boston Center
10:39PM 42.5900 -77.1083 86° East 493 567 21,000  Level Boston Center
10:40PM 42.6053 -76.8836 85° East 493 567 21,000  Level Boston Center
10:41PM 42.6167 -76.6981 85° East 493 567 21,000  Level Boston Center
10:42PM 42.6256 -76.5125 86° East 493 567 21,000  Level Boston Center
10:43PM 42.6383 -76.3269 85° East 493 567 21,000  Level Boston Center
10:44PM 42.6472 -76.1214 87° East 493 567 21,000  Level Boston Center
10:45PM 42.6572 -75.9383 86° East 493 567 21,000  Level Boston Center
10:46PM 42.6689 -75.7497 85° East 493 567 21,000 -240 Level Boston Center
10:47PM 42.6764 -75.5639 87° East 493 567 20,600 -1,200 Descending Boston Center
10:48PM 42.6875 -75.3836 85° East 493 567 18,700 -1,800 Descending Boston Center
10:49PM 42.6939 -75.2086 87° East 482 555 17,000 -1,680 Descending Boston Center
10:50PM 42.7000 -75.0364 87° East 464 534 15,400 -1,620 Descending Boston Center
10:51PM 42.7078 -74.8758 86° East 440 506 13,800 -1,680 Descending Boston Center
10:52PM 42.7153 -74.7150 86° East 428 493 12,100 -1,620 Descending Boston Center
10:53PM 42.7169 -74.6275 88° East 409 471 11,300 -1,200 Descending Boston Center
10:53PM 42.7203 -74.5569 86° East 415 478 10,900 -420 Descending Boston Center
10:54PM 42.7219 -74.4750 88° East 400 460 10,900 -300 Level Boston Center
10:54PM 42.7167 -74.4153 97° East 390 449 10,600 -900 Descending Boston Center
10:55PM 42.7033 -74.3500 106° East 326 375 10,000 -1,200 Descending Boston Center
10:55PM 42.6917 -74.2958 106° East 346 398 9,400 -1,620 Descending Boston Center
10:56PM 42.6781 -74.2361 107° East 302 348 8,400 -1,800 Descending Boston Center
10:56PM 42.6706 -74.1822 101° East 309 356 7,600 -1,680 Descending Boston Center
10:57PM 42.6547 -74.1256 111° Southeast 301 346 6,700 -1,740 Descending Boston Center
10:57PM 42.6447 -74.0886 110° East 302 348 5,900 -1,980 Descending Boston Center
10:58PM 42.6292 -74.0175 107° East 297 342 4,700 -1,800 Descending Boston Center
10:58PM 42.6172 -73.9778 112° Southeast 292 336 4,100 -1,140 Descending Boston Center
10:59PM 42.6097 -73.9156 99° East 262 302 3,600 -900 Descending Boston Center
10:59PM 42.6100 -73.8789 89° East 276 318 3,200 -1,140 Descending Boston Center
11:00PM 42.6169 -73.8281 79° East 218 251 2,500 -900 Descending Boston Center
11:00PM 42.6214 -73.8169 61° Northeast 239 275 2,300 -540 Descending Boston Center